Time;durP1;ratioP1;P1;durP2;ratioP2;P2;SDS_P1;SDS_P2;PMS_P1;PMS_P2;Temp;Humidity;BMP_temperature;BMP_pressure;BME280_temperature;BME280_humidity;BME280_pressure;Samples;Min_cycle;Max_cycle;Signal;HPM_P1;HPM_P2
2022/12/13 00:01:51;;;;;;;22.33;14.63;;;;;;;-1.07;87.57;101139.44;5012826;28;20061;-51
2022/12/13 00:04:21;;;;;;;23.48;15.30;;;;;;;-1.05;88.45;101139.25;4988565;28;20069;-47
2022/12/13 00:06:49;;;;;;;24.02;14.70;;;;;;;-1.07;88.44;101133.28;4976593;28;20524;-50
2022/12/13 00:09:18;;;;;;;21.02;14.38;;;;;;;-1.08;88.51;101137.78;4983743;28;20045;-49
2022/12/13 00:11:47;;;;;;;21.35;14.07;;;;;;;-1.08;87.80;101135.13;5006023;28;20061;-48
2022/12/13 00:14:15;;;;;;;21.50;14.45;;;;;;;-1.07;88.11;101133.28;4997124;28;20049;-50
2022/12/13 00:16:46;;;;;;;26.70;15.43;;;;;;;-1.08;87.91;101136.97;5016720;28;20069;-48
2022/12/13 00:19:15;;;;;;;24.88;15.45;;;;;;;-1.14;87.78;101129.66;4985569;28;20050;-49
2022/12/13 00:21:43;;;;;;;27.25;14.85;;;;;;;-1.18;88.15;101133.72;4993161;28;20444;-47
2022/12/13 00:24:11;;;;;;;25.60;15.32;;;;;;;-1.23;87.76;101125.41;4966421;28;20432;-49
2022/12/13 00:26:39;;;;;;;25.27;14.93;;;;;;;-1.26;87.86;101131.13;4983431;28;20038;-50
2022/12/13 00:29:07;;;;;;;20.25;13.60;;;;;;;-1.27;88.01;101124.09;4977942;28;20049;-48
2022/12/13 00:31:35;;;;;;;22.33;14.73;;;;;;;-1.25;88.28;101124.75;4982971;28;20042;-47
2022/12/13 00:34:23;;;;;;;23.95;15.00;;;;;;;-1.25;88.72;101127.44;5010962;28;20469;-47
2022/12/13 00:36:53;;;;;;;21.20;14.38;;;;;;;-1.23;88.59;101125.41;4996707;28;20551;-49
2022/12/13 00:39:21;;;;;;;24.20;14.60;;;;;;;-1.22;88.63;101124.41;5003080;28;20053;-46
2022/12/13 00:41:49;;;;;;;25.50;15.30;;;;;;;-1.23;88.48;101125.41;4996491;28;20038;-47
2022/12/13 00:44:18;;;;;;;21.45;14.23;;;;;;;-1.23;88.27;101118.22;4979614;28;20045;-47
2022/12/13 00:46:46;;;;;;;26.92;15.30;;;;;;;-1.21;87.99;101120.72;4997949;28;20069;-49
2022/12/13 00:49:14;;;;;;;23.20;15.30;;;;;;;-1.23;88.41;101120.88;5016835;28;20107;-46
2022/12/13 00:51:42;;;;;;;26.35;15.10;;;;;;;-1.23;88.09;101114.72;4992875;28;20046;-48
2022/12/13 00:54:11;;;;;;;24.17;15.25;;;;;;;-1.23;87.99;101125.41;4994321;28;20054;-46
2022/12/13 00:56:39;;;;;;;24.85;15.00;;;;;;;-1.23;87.19;101115.53;5016079;28;20084;-48
2022/12/13 00:59:07;;;;;;;20.98;13.85;;;;;;;-1.24;87.49;101118.41;5007428;28;20061;-47
2022/12/13 01:01:35;;;;;;;21.27;14.65;;;;;;;-1.30;87.48;101114.63;4982054;28;20462;-47
2022/12/13 01:04:05;;;;;;;23.00;14.40;;;;;;;-1.32;88.27;101116.66;4995292;28;20137;-50
2022/12/13 01:06:38;;;;;;;21.27;14.98;;;;;;;-1.31;88.13;101113.78;4998529;28;20041;-48
2022/12/13 01:09:09;;;;;;;25.25;15.15;;;;;;;-1.30;88.39;101114.63;5015526;28;20049;-49
2022/12/13 01:11:36;;;;;;;20.42;14.23;;;;;;;-1.31;88.19;101126.31;5006131;28;20117;-49
2022/12/13 01:14:04;;;;;;;23.05;14.65;;;;;;;-1.34;87.72;101113.34;5013802;28;20046;-49
2022/12/13 01:16:32;;;;;;;24.48;15.38;;;;;;;-1.35;87.60;101115.19;5006710;28;20046;-50
2022/12/13 01:18:59;;;;;;;20.92;14.88;;;;;;;-1.35;88.13;101122.34;5015382;28;20497;-49
2022/12/13 01:21:27;;;;;;;25.00;15.38;;;;;;;-1.35;87.60;101120.53;4994023;28;20050;-51
2022/12/13 01:24:04;;;;;;;25.98;16.00;;;;;;;-1.35;88.03;101117.00;5007397;28;20045;-49
2022/12/13 01:26:32;;;;;;;22.90;15.07;;;;;;;-1.37;87.71;101113.69;5014362;28;20046;-50
2022/12/13 01:29:00;;;;;;;24.77;15.43;;;;;;;-1.38;86.86;101114.72;4984578;28;20039;-49
2022/12/13 01:31:28;;;;;;;27.20;15.88;;;;;;;-1.43;87.19;101117.94;5012887;28;20049;-50
2022/12/13 01:33:56;;;;;;;25.33;16.33;;;;;;;-1.47;85.92;101119.28;4997329;28;20042;-48
2022/12/13 01:36:24;;;;;;;25.38;16.00;;;;;;;-1.62;85.94;101115.75;4997623;28;20042;-48
2022/12/13 01:38:55;;;;;;;26.17;16.10;;;;;;;-1.75;86.95;101111.88;5015129;28;20045;-50
2022/12/13 01:41:27;;;;;;;27.00;16.40;;;;;;;-1.78;87.89;101119.41;4973577;28;20129;-49
2022/12/13 01:44:01;;;;;;;25.38;16.27;;;;;;;-1.77;88.70;101118.41;5007375;28;20053;-49
2022/12/13 01:46:34;;;;;;;26.40;16.83;;;;;;;-1.77;89.34;101129.09;5014852;28;20531;-51
2022/12/13 01:49:12;;;;;;;25.42;16.20;;;;;;;-1.76;88.74;101122.72;4997705;28;20036;-47
2022/12/13 01:51:57;;;;;;;23.98;15.35;;;;;;;-1.84;89.08;101118.28;4998620;28;20492;-46
2022/12/13 01:54:32;;;;;;;22.27;15.13;;;;;;;-1.88;89.49;101118.81;5000220;28;20105;-48
2022/12/13 01:57:02;;;;;;;25.80;15.55;;;;;;;-1.84;90.38;101112.94;5003730;28;20042;-49
2022/12/13 01:59:30;;;;;;;24.25;14.75;;;;;;;-1.77;90.37;101113.88;4997388;28;20128;-49
2022/12/13 02:01:57;;;;;;;24.58;15.40;;;;;;;-1.70;89.96;101113.19;5014584;28;20660;-53
2022/12/13 02:04:53;;;;;;;22.02;14.45;;;;;;;-1.64;89.50;101117.78;5011968;28;20050;-48
2022/12/13 02:07:24;;;;;;;25.45;15.60;;;;;;;-1.67;89.62;101116.31;4981439;28;20501;-49
2022/12/13 02:09:58;;;;;;;22.95;14.93;;;;;;;-1.67;89.80;101118.97;4958795;28;20089;-51
2022/12/13 02:12:28;;;;;;;22.23;14.20;;;;;;;-1.66;89.30;101117.97;4975215;28;20077;-51
2022/12/13 02:14:59;;;;;;;26.70;15.85;;;;;;;-1.63;88.80;101119.47;4990684;28;20039;-52
2022/12/13 02:17:55;;;;;;;22.73;14.52;;;;;;;-1.64;88.96;101115.09;4959962;28;20050;-51
2022/12/13 02:20:42;;;;;;;25.38;15.18;;;;;;;-1.62;88.25;101115.75;4987703;28;20047;-52
2022/12/13 02:23:09;;;;;;;24.20;15.80;;;;;;;-1.61;88.40;101117.41;4955653;28;20054;-51
2022/12/13 02:25:49;;;;;;;22.75;15.80;;;;;;;-1.58;88.77;101114.41;4983306;28;20053;-50
2022/12/13 02:28:51;;;;;;;22.55;14.93;;;;;;;-1.56;88.28;101117.72;4971020;28;20501;-51
2022/12/13 02:31:28;;;;;;;24.88;15.18;;;;;;;-1.55;88.27;101114.03;4977494;28;20098;-50
2022/12/13 02:34:05;;;;;;;21.80;15.20;;;;;;;-1.56;87.81;101113.22;4970249;28;20093;-49
2022/12/13 02:37:00;;;;;;;24.70;15.70;;;;;;;-1.57;87.44;101110.72;4975783;28;20057;-51
2022/12/13 02:39:35;;;;;;;23.33;15.20;;;;;;;-1.58;87.79;101109.06;4967807;28;20047;-50
2022/12/13 02:42:16;;;;;;;22.58;15.15;;;;;;;-1.58;87.74;101106.38;4973268;28;20043;-48
2022/12/13 02:45:00;;;;;;;24.50;15.40;;;;;;;-1.56;87.68;101104.38;4963382;28;20042;-51
2022/12/13 02:47:29;;;;;;;23.52;14.95;;;;;;;-1.56;88.05;101107.03;4973518;28;20521;-46
2022/12/13 02:49:59;;;;;;;22.23;15.23;;;;;;;-1.57;87.80;101100.03;4976879;28;20046;-50
2022/12/13 02:52:28;;;;;;;24.33;15.13;;;;;;;-1.57;87.25;101103.50;4976505;28;20442;-49
2022/12/13 02:54:56;;;;;;;24.30;15.85;;;;;;;-1.58;87.84;101101.03;4968471;28;20035;-47
2022/12/13 02:57:39;;;;;;;24.58;15.68;;;;;;;-1.58;87.71;101090.34;4962530;28;20038;-50
2022/12/13 03:00:14;;;;;;;23.55;15.20;;;;;;;-1.58;87.86;101101.03;4980418;28;20034;-50
2022/12/13 03:02:54;;;;;;;23.92;15.02;;;;;;;-1.59;87.92;101094.03;4960340;28;20050;-47
2022/12/13 03:08:48;;;;;;;23.35;14.77;;;;;;;-1.59;88.08;101091.34;4974763;28;20047;-49
2022/12/13 03:11:18;;;;;;;23.50;15.85;;;;;;;-1.62;87.92;101094.38;4976072;28;20097;-49
2022/12/13 03:13:54;;;;;;;23.70;15.00;;;;;;;-1.65;87.99;101084.06;4982144;28;20054;-49
2022/12/13 03:16:39;;;;;;;24.90;15.68;;;;;;;-1.69;87.38;101085.44;4981762;28;20093;-48
2022/12/13 03:19:09;;;;;;;22.88;15.10;;;;;;;-1.69;88.19;101082.78;4974480;28;20054;-50
2022/12/13 03:21:44;;;;;;;30.33;15.73;;;;;;;-1.68;87.92;101089.75;4971894;28;20050;-49
2022/12/13 03:24:19;;;;;;;22.40;15.30;;;;;;;-1.68;88.04;101089.75;4974496;28;20047;-49
2022/12/13 03:26:48;;;;;;;24.45;15.82;;;;;;;-1.68;87.84;101079.94;4974970;28;20039;-48
2022/12/13 03:29:16;;;;;;;24.02;16.15;;;;;;;-1.72;88.36;101084.78;4980603;28;20093;-49
2022/12/13 03:31:52;;;;;;;25.52;15.93;;;;;;;-1.80;88.70;101092.88;4983400;28;20047;-50
2022/12/13 03:34:20;;;;;;;26.25;17.63;;;;;;;-1.90;88.80;101081.63;4974481;28;20408;-50
2022/12/13 03:36:51;;;;;;;27.20;17.80;;;;;;;-1.95;89.71;101089.31;4971580;28;20042;-53
2022/12/13 03:39:19;;;;;;;23.73;16.80;;;;;;;-1.91;91.20;101090.63;4975823;28;20046;-48
2022/12/13 03:41:47;;;;;;;23.20;15.88;;;;;;;-1.84;90.85;101086.22;4983561;28;20042;-50
2022/12/13 03:44:15;;;;;;;25.20;16.40;;;;;;;-1.78;90.62;101096.22;4952123;28;20053;-50
2022/12/13 03:46:44;;;;;;;23.52;15.80;;;;;;;-1.74;90.32;101089.47;4977676;28;20050;-48
2022/12/13 03:49:11;;;;;;;25.83;16.60;;;;;;;-1.73;89.41;101083.13;4985024;28;20120;-50
2022/12/13 03:51:44;;;;;;;25.27;16.85;;;;;;;-1.76;89.33;101088.81;4989341;28;20121;-50
2022/12/13 03:54:11;;;;;;;24.92;15.73;;;;;;;-1.79;89.29;101086.53;4980315;28;20126;-50
2022/12/13 03:56:39;;;;;;;30.80;16.80;;;;;;;-1.77;89.35;101086.34;4979959;28;20086;-52
2022/12/13 03:59:06;;;;;;;22.90;15.50;;;;;;;-1.75;89.24;101085.16;4971096;28;20043;-52
2022/12/13 04:01:34;;;;;;;26.10;17.15;;;;;;;-1.75;88.93;101090.50;4985659;28;20043;-48
2022/12/13 04:04:02;;;;;;;25.17;16.50;;;;;;;-1.73;89.02;101085.00;4992865;28;20573;-51
2022/12/13 04:06:29;;;;;;;26.48;16.33;;;;;;;-1.75;89.05;101082.50;4980464;28;20043;-49
2022/12/13 04:08:59;;;;;;;27.33;17.00;;;;;;;-1.72;88.57;101078.63;4987804;28;20042;-51
2022/12/13 04:14:13;;;;;;;;;;;;;;;-1.80;87.88;101087.53;4993388;28;20441;-50
2022/12/13 04:16:51;;;;;;;23.73;16.48;;;;;;;-1.86;88.62;101082.91;4992282;28;19922;-48
2022/12/13 04:19:19;;;;;;;22.33;15.55;;;;;;;-1.88;89.20;101076.91;4987299;28;20046;-50
2022/12/13 04:21:52;;;;;;;26.90;17.55;;;;;;;-1.85;89.61;101081.91;4966966;28;20502;-50
2022/12/13 04:24:21;;;;;;;24.55;16.27;;;;;;;-1.86;89.47;101071.41;4983703;28;20054;-48
2022/12/13 04:26:59;;;;;;;26.25;17.08;;;;;;;-1.89;89.26;101072.59;4992516;28;20047;-49
2022/12/13 04:29:28;;;;;;;24.73;16.63;;;;;;;-1.90;88.94;101070.09;4993283;28;20050;-48
2022/12/13 04:32:02;;;;;;;25.85;17.00;;;;;;;-1.91;89.53;101069.28;4979725;28;20042;-47
2022/12/13 04:34:30;;;;;;;24.98;16.48;;;;;;;-1.90;89.38;101070.09;4953761;28;20097;-49
2022/12/13 04:37:04;;;;;;;26.75;15.98;;;;;;;-1.94;89.48;101066.97;4985157;28;20030;-50
2022/12/13 04:39:32;;;;;;;26.00;16.17;;;;;;;-1.94;89.49;101061.63;4998195;28;20050;-48
2022/12/13 04:42:01;;;;;;;25.05;16.25;;;;;;;-2.00;89.44;101067.66;4980557;28;20066;-47
2022/12/13 04:44:30;;;;;;;27.75;16.90;;;;;;;-2.06;89.78;101071.06;4980072;28;20493;-50
2022/12/13 04:47:03;;;;;;;25.25;16.98;;;;;;;-2.09;90.60;101061.59;4979564;28;20039;-49
2022/12/13 04:49:31;;;;;;;23.27;15.95;;;;;;;-2.10;90.05;101062.56;4988329;28;20039;-48
2022/12/13 04:52:00;;;;;;;24.63;16.35;;;;;;;-2.10;90.72;101065.25;4976114;28;20046;-48
2022/12/13 04:54:32;;;;;;;24.08;16.48;;;;;;;-2.07;90.67;101058.72;4980107;28;20409;-49
2022/12/13 04:57:04;;;;;;;25.80;16.67;;;;;;;-2.07;90.51;101064.06;4979997;28;20449;-49
2022/12/13 04:59:34;;;;;;;24.27;16.20;;;;;;;-2.07;90.46;101064.06;4984082;28;20043;-48
2022/12/13 05:02:03;;;;;;;24.48;16.38;;;;;;;-2.07;90.82;101066.72;4979523;28;20425;-47
2022/12/13 05:04:31;;;;;;;25.02;16.70;;;;;;;-2.02;91.14;101061.69;4975557;28;20051;-47
2022/12/13 05:07:01;;;;;;;25.55;16.45;;;;;;;-2.05;90.42;101060.19;4983673;28;20042;-50
2022/12/13 05:09:29;;;;;;;27.73;16.90;;;;;;;-2.05;90.42;101057.53;4973760;28;20502;-49
2022/12/13 05:11:56;;;;;;;23.73;15.40;;;;;;;-2.03;90.58;101063.53;4983370;28;20093;-44
2022/12/13 05:14:30;;;;;;;23.60;16.05;;;;;;;-2.03;90.28;101060.84;4976369;28;20486;-50
2022/12/13 05:16:58;;;;;;;22.88;15.82;;;;;;;-2.08;90.70;101057.91;4972240;28;20498;-48
2022/12/13 05:19:27;;;;;;;24.35;16.65;;;;;;;-2.10;90.97;101049.22;4976278;28;20097;-49
2022/12/13 05:21:59;;;;;;;24.00;16.48;;;;;;;-2.11;91.07;101047.59;4989417;28;20117;-49
2022/12/13 05:24:28;;;;;;;25.75;16.63;;;;;;;-2.09;91.28;101055.38;4989631;28;20109;-50
2022/12/13 05:26:57;;;;;;;24.70;16.60;;;;;;;-2.09;91.57;101052.72;4975458;28;20039;-50
2022/12/13 05:29:26;;;;;;;23.50;15.70;;;;;;;-2.07;92.04;101054.19;4974341;28;20042;-49
2022/12/13 05:31:54;;;;;;;24.70;16.20;;;;;;;-2.08;91.76;101047.22;4976014;28;20090;-51
2022/12/13 05:34:21;;;;;;;25.05;16.80;;;;;;;-2.05;92.01;101046.03;4983763;28;20054;-50
2022/12/13 05:36:49;;;;;;;24.38;17.00;;;;;;;-2.05;91.53;101046.84;4979047;28;20047;-48
2022/12/13 05:39:17;;;;;;;25.08;15.85;;;;;;;-2.10;91.59;101043.88;4987489;28;20386;-46
2022/12/13 05:41:57;;;;;;;24.17;16.55;;;;;;;-2.11;92.26;101036.09;4976335;28;20409;-49
2022/12/13 05:44:30;;;;;;;24.73;16.70;;;;;;;-2.16;91.95;101034.78;4988515;28;20062;-49
2022/12/13 05:46:59;;;;;;;24.20;16.50;;;;;;;-2.22;92.44;101032.81;4971680;28;20047;-48
2022/12/13 05:49:30;;;;;;;25.85;16.98;;;;;;;-2.25;92.56;101022.50;4977270;28;20511;-48
2022/12/13 05:51:57;;;;;;;24.05;16.98;;;;;;;-2.30;92.62;101022.19;4978184;28;20039;-51
2022/12/13 05:54:25;;;;;;;24.95;16.95;;;;;;;-2.39;92.91;101028.59;4975678;28;20061;-47
2022/12/13 05:56:53;;;;;;;25.83;17.45;;;;;;;-2.44;93.57;101033.66;4989796;28;20483;-50
2022/12/13 05:59:21;;;;;;;28.25;17.67;;;;;;;-2.44;94.49;101030.97;4976523;28;20085;-50
2022/12/13 06:01:49;;;;;;;27.58;17.67;;;;;;;-2.38;94.82;101024.94;4986622;28;20042;-48
2022/12/13 06:04:16;;;;;;;24.45;16.95;;;;;;;-2.38;94.21;101015.09;4957625;28;20047;-48
2022/12/13 06:06:50;;;;;;;24.00;16.23;;;;;;;-2.39;93.89;101017.94;4961061;28;20034;-48
2022/12/13 06:09:19;;;;;;;24.83;16.88;;;;;;;-2.39;93.72;101028.59;4957668;28;20506;-48
2022/12/13 06:11:47;;;;;;;26.63;17.30;;;;;;;-2.43;93.65;101019.28;4968691;28;20046;-48
2022/12/13 06:14:15;;;;;;;25.52;17.02;;;;;;;-2.50;93.95;101027.19;4970441;28;20087;-50
2022/12/13 06:16:51;;;;;;;25.02;17.63;;;;;;;-2.52;94.57;101023.88;4956597;28;20125;-48
2022/12/13 06:19:20;;;;;;;27.92;18.42;;;;;;;-2.49;94.73;101034.19;4977524;28;20079;-49
2022/12/13 06:21:48;;;;;;;28.05;17.15;;;;;;;-2.43;95.43;101024.63;4958292;28;20422;-51
2022/12/13 06:24:20;;;;;;;26.58;18.10;;;;;;;-2.42;94.65;101023.63;4956525;28;20050;-49
2022/12/13 06:26:49;;;;;;;30.08;17.63;;;;;;;-2.43;94.48;101022.81;4957276;28;20043;-48
2022/12/13 06:29:18;;;;;;;27.52;17.77;;;;;;;-2.44;93.87;101020.31;4972343;28;20049;-48
2022/12/13 06:31:53;;;;;;;29.67;17.85;;;;;;;-2.48;94.56;101029.66;4973663;28;20035;-48
2022/12/13 06:34:20;;;;;;;28.92;18.40;;;;;;;-2.46;94.83;101033.00;4270972;28;10000269;-47
2022/12/13 06:36:48;;;;;;;28.23;18.33;;;;;;;-2.41;95.20;101028.78;4963739;28;20047;-48
2022/12/13 06:39:16;;;;;;;28.30;17.75;;;;;;;-2.37;94.72;101026.59;4962375;28;20039;-46
2022/12/13 06:41:43;;;;;;;31.65;19.60;;;;;;;-2.41;93.59;101035.94;4954729;28;20043;-49
2022/12/13 06:44:11;;;;;;;29.23;18.02;;;;;;;-2.46;94.08;101036.47;4952069;28;20074;-48
2022/12/13 06:46:39;;;;;;;29.02;18.33;;;;;;;-2.46;94.30;101033.81;4953147;28;20051;-50
2022/12/13 06:49:07;;;;;;;26.67;18.13;;;;;;;-2.48;94.28;101029.66;4969779;28;20070;-50
2022/12/13 06:51:35;;;;;;;27.98;18.10;;;;;;;-2.51;94.35;101038.03;4956767;28;20051;-46
2022/12/13 06:54:02;;;;;;;28.40;18.45;;;;;;;-2.49;94.65;101033.34;4956927;28;20564;-45
2022/12/13 06:56:31;;;;;;;26.40;16.95;;;;;;;-2.49;94.75;101030.69;4966411;28;20094;-48
2022/12/13 06:58:59;;;;;;;26.52;17.52;;;;;;;-2.48;94.81;101033.16;4960906;28;20079;-46
2022/12/13 07:01:29;;;;;;;28.55;18.55;;;;;;;-2.40;95.07;101035.78;4952205;28;20047;-48
2022/12/13 07:04:05;;;;;;;29.08;17.30;;;;;;;-2.37;94.35;101034.59;4964573;28;20520;-48
2022/12/13 07:06:53;;;;;;;26.00;18.48;;;;;;;-2.33;94.35;101038.59;4952130;28;20375;-48
2022/12/13 07:09:20;;;;;;;24.13;16.63;;;;;;;-2.32;94.71;101037.56;4955884;28;20047;-49
2022/12/13 07:11:48;;;;;;;30.50;18.58;;;;;;;-2.30;94.53;101040.88;4956008;28;20552;-51
2022/12/13 07:14:19;;;;;;;27.55;18.67;;;;;;;-2.32;93.82;101040.22;4955865;28;20043;-49
2022/12/13 07:16:47;;;;;;;25.48;17.65;;;;;;;-2.15;96.40;101041.75;4960584;28;20422;-48
2022/12/13 07:19:14;;;;;;;26.73;18.58;;;;;;;-2.20;94.58;101038.78;4965391;28;20081;-50
2022/12/13 07:21:50;;;;;;;;;;;;;;;-2.26;93.42;101039.53;4958003;28;20038;-49
2022/12/13 07:24:18;;;;;;;29.15;19.52;;;;;;;-2.34;93.40;101036.09;4969260;28;20265;-48
2022/12/13 07:26:46;;;;;;;32.97;20.10;;;;;;;-2.39;93.49;101034.75;4961366;28;20043;-50
2022/12/13 07:29:13;;;;;;;28.60;19.17;;;;;;;-2.39;93.68;101039.28;4969789;28;20039;-49
2022/12/13 07:31:49;;;;;;;27.70;19.27;;;;;;;-2.41;93.72;101042.13;4970775;28;20141;-48
2022/12/13 07:34:17;;;;;;;28.27;18.73;;;;;;;-2.46;93.99;101039.16;4966279;28;20114;-50
2022/12/13 07:36:44;;;;;;;28.55;19.35;;;;;;;-2.48;94.21;101045.66;4968482;28;20046;-47
2022/12/13 07:39:12;;;;;;;29.20;19.15;;;;;;;-2.51;93.95;101051.38;4970350;28;20043;-49
2022/12/13 07:41:40;;;;;;;30.10;19.15;;;;;;;-2.54;94.14;101046.41;4625386;28;10000508;-49
2022/12/13 07:44:07;;;;;;;28.17;19.15;;;;;;;-2.52;94.61;101047.88;4972112;28;20043;-48
2022/12/13 07:46:35;;;;;;;27.55;19.00;;;;;;;-2.55;93.75;101045.53;4971163;28;20043;-51
2022/12/13 07:49:03;;;;;;;32.25;19.80;;;;;;;-2.67;94.12;101037.13;4970293;28;20553;-49
2022/12/13 07:51:34;;;;;;;30.30;19.80;;;;;;;-2.65;97.40;101047.59;4967580;28;20047;-47
2022/12/13 07:54:02;;;;;;;27.13;18.65;;;;;;;-2.64;97.71;101050.13;4957508;28;20039;-47
2022/12/13 07:56:34;;;;;;;31.98;21.10;;;;;;;-2.64;96.61;101052.78;4969321;28;20051;-50
2022/12/13 07:59:02;;;;;;;29.52;20.80;;;;;;;-2.67;96.47;101053.13;4972423;28;20398;-50
2022/12/13 08:01:33;;;;;;;31.45;20.88;;;;;;;-2.61;96.35;101057.75;4971234;28;20486;-50
2022/12/13 08:04:03;;;;;;;28.90;21.02;;;;;;;-2.64;95.57;101055.44;4979600;28;20054;-50
2022/12/13 08:06:36;;;;;;;28.63;20.15;;;;;;;-2.69;95.55;101060.47;4962521;28;20164;-46
2022/12/13 08:09:04;;;;;;;29.67;21.02;;;;;;;-2.67;96.11;101063.81;4974921;28;20117;-49
2022/12/13 08:11:32;;;;;;;30.63;21.25;;;;;;;-2.60;96.20;101064.78;4975030;28;20050;-50
2022/12/13 08:14:00;;;;;;;29.85;20.92;;;;;;;-2.63;95.33;101059.75;4973684;28;20047;-49
2022/12/13 08:16:29;;;;;;;30.02;20.25;;;;;;;-2.66;95.47;101057.47;4968685;28;20047;-48
2022/12/13 08:18:58;;;;;;;30.30;20.98;;;;;;;-2.73;95.74;101050.34;4954535;28;20059;-48
2022/12/13 08:21:40;;;;;;;27.30;20.70;;;;;;;-2.75;96.03;101050.50;4959476;28;20461;-49
2022/12/13 08:24:29;;;;;;;31.60;20.50;;;;;;;-2.74;96.62;101046.00;4956663;28;20039;-50
2022/12/13 08:27:01;;;;;;;30.50;21.67;;;;;;;-2.71;96.08;101043.81;4954299;28;20046;-48
2022/12/13 08:29:33;;;;;;;32.90;20.20;;;;;;;-2.65;97.10;101044.94;4956964;28;20051;-50
2022/12/13 08:32:05;;;;;;;30.83;21.02;;;;;;;-2.57;97.30;101053.75;4961489;28;20049;-47
2022/12/13 08:34:32;;;;;;;32.15;20.90;;;;;;;-2.45;97.54;101048.00;4958459;28;20039;-48
2022/12/13 08:37:00;;;;;;;31.75;21.38;;;;;;;-2.43;95.98;101046.81;4961623;28;20074;-47
2022/12/13 08:39:33;;;;;;;28.80;20.95;;;;;;;-2.45;95.78;101056.84;4962291;28;20039;-47
2022/12/13 08:42:07;;;;;;;29.02;21.02;;;;;;;-2.47;95.65;101058.03;4959640;28;20051;-48
2022/12/13 08:44:45;;;;;;;30.05;21.60;;;;;;;-2.47;95.89;101063.34;4961730;28;20043;-47
2022/12/13 08:47:12;;;;;;;29.25;21.52;;;;;;;-2.39;96.16;101060.63;4971261;28;20050;-47
2022/12/13 08:49:58;;;;;;;32.78;21.75;;;;;;;-2.34;95.19;101063.59;4961073;28;20557;-47
2022/12/13 08:52:31;;;;;;;28.98;20.60;;;;;;;-2.37;94.87;101058.63;4964445;28;20051;-45
2022/12/13 08:55:13;;;;;;;28.80;20.60;;;;;;;-2.42;95.05;101071.66;4958298;28;20042;-45
2022/12/13 08:57:42;;;;;;;27.98;20.20;;;;;;;-2.39;95.65;101068.63;4960553;28;20043;-50
2022/12/13 09:00:12;;;;;;;28.80;22.05;;;;;;;-2.42;95.54;101077.00;4972401;28;20520;-46
2022/12/13 09:02:40;;;;;;;32.78;22.67;;;;;;;-2.46;95.71;101073.00;4955993;28;20039;-48
2022/12/13 09:05:09;;;;;;;37.35;23.02;;;;;;;-2.45;96.18;101082.69;4978722;28;20042;-48
2022/12/13 09:07:39;;;;;;;33.33;22.52;;;;;;;-2.47;95.74;101082.03;4967730;28;20042;-49
2022/12/13 09:10:08;;;;;;;29.90;23.15;;;;;;;-2.48;96.21;101078.50;4985698;28;20046;-49
2022/12/13 09:12:58;;;;;;;31.25;22.63;;;;;;;-2.49;96.51;101076.03;4988169;28;20514;-47
2022/12/13 09:15:30;;;;;;;31.58;22.65;;;;;;;-2.57;96.59;101072.41;4974762;28;20556;-50
2022/12/13 09:18:02;;;;;;;33.22;23.25;;;;;;;-2.60;96.65;101072.78;4976375;28;20125;-46
2022/12/13 09:20:36;;;;;;;33.70;24.00;;;;;;;-2.57;97.25;101075.06;4962868;28;20066;-47
2022/12/13 09:23:08;;;;;;;35.97;23.63;;;;;;;-2.51;97.12;101075.38;4978329;28;20497;-47
2022/12/13 09:25:56;;;;;;;33.20;23.88;;;;;;;-2.47;96.96;101077.53;4977669;28;20498;-46
2022/12/13 09:28:33;;;;;;;32.88;23.25;;;;;;;-2.39;96.83;101069.44;4994120;28;20448;-46
2022/12/13 09:31:11;;;;;;;30.02;21.50;;;;;;;-2.29;96.72;101081.75;4988507;28;20101;-47
2022/12/13 09:33:39;;;;;;;30.00;20.50;;;;;;;-2.19;96.75;101080.50;4976309;28;20497;-50
2022/12/13 09:36:11;;;;;;;30.85;20.10;;;;;;;-2.11;96.88;101084.13;4979660;28;20046;-48
2022/12/13 09:38:39;;;;;;;29.42;21.60;;;;;;;-2.10;96.45;101083.09;4986956;28;20101;-49
2022/12/13 09:41:27;;;;;;;29.90;20.60;;;;;;;-2.06;96.25;101085.25;4976171;28;20047;-47
2022/12/13 09:44:17;;;;;;;30.95;21.20;;;;;;;-2.00;96.29;101081.84;4965396;28;20093;-49
2022/12/13 09:47:02;;;;;;;28.50;20.83;;;;;;;-1.94;96.33;101081.13;4983506;28;20517;-47
2022/12/13 09:49:43;;;;;;;31.33;21.33;;;;;;;-1.89;96.54;101080.59;4967573;28;20070;-48
2022/12/13 09:52:21;;;;;;;31.50;21.17;;;;;;;-1.80;96.57;101081.38;4961705;28;20035;-46
2022/12/13 09:54:53;;;;;;;27.83;20.75;;;;;;;-1.77;95.59;101073.81;4962177;28;20046;-49
2022/12/13 09:57:29;;;;;;;28.55;20.77;;;;;;;-1.72;96.30;101067.94;4967601;28;20406;-48
2022/12/13 10:00:06;;;;;;;29.73;20.73;;;;;;;-1.68;95.00;101074.59;4958590;28;20093;-46
2022/12/13 10:02:41;;;;;;;;;;;;;;;-1.61;95.17;101069.31;4976384;28;20050;-48
2022/12/13 10:05:15;;;;;;;31.00;21.23;;;;;;;-1.59;94.30;101053.94;4975906;28;19922;-49
2022/12/13 10:07:53;;;;;;;31.75;20.98;;;;;;;-1.56;94.80;101045.59;4982424;28;20047;-47
2022/12/13 10:10:20;;;;;;;26.90;19.73;;;;;;;-1.56;94.14;101050.94;4969327;28;20042;-46
2022/12/13 10:13:02;;;;;;;29.92;20.23;;;;;;;-1.55;94.01;101055.25;4967393;28;20497;-48
2022/12/13 10:15:31;;;;;;;26.20;19.25;;;;;;;-1.55;94.17;101052.59;4971034;28;20042;-46
2022/12/13 10:17:59;;;;;;;27.85;20.25;;;;;;;-1.53;94.54;101051.38;4972991;28;20039;-47
2022/12/13 10:20:28;;;;;;;30.85;21.65;;;;;;;-1.52;94.57;101039.66;4963318;28;20119;-46
2022/12/13 10:22:56;;;;;;;33.13;22.02;;;;;;;-1.51;94.59;101038.66;4974178;28;20046;-47
2022/12/13 10:25:54;;;;;;;31.45;21.38;;;;;;;-1.46;94.63;101040.81;4965057;28;20078;-48
2022/12/13 10:28:32;;;;;;;26.08;19.35;;;;;;;-1.42;94.97;101034.09;4959185;28;20038;-49
2022/12/13 10:31:00;;;;;;;30.05;20.52;;;;;;;-1.40;94.28;101029.34;4986772;28;20042;-56
2022/12/13 10:33:38;;;;;;;29.85;21.35;;;;;;;-1.38;94.47;101027.34;4973208;28;20515;-47
2022/12/13 10:36:07;;;;;;;30.85;21.42;;;;;;;-1.34;94.53;101023.28;4981579;28;20050;-47
2022/12/13 10:38:40;;;;;;;31.42;22.27;;;;;;;-1.32;95.01;101018.59;4983414;28;20050;-54
2022/12/13 10:41:28;;;;;;;29.85;20.33;;;;;;;-1.31;94.98;101012.22;4987847;28;20043;-47
2022/12/13 10:44:11;;;;;;;28.40;21.17;;;;;;;-1.25;93.70;101007.13;4968964;28;20129;-46
2022/12/13 10:46:40;;;;;;;27.73;20.35;;;;;;;-1.20;94.28;101007.41;4987751;28;20046;-50
2022/12/13 10:49:21;;;;;;;27.92;19.75;;;;;;;-1.16;93.08;101001.50;4993024;28;20105;-48
2022/12/13 10:51:50;;;;;;;27.30;19.95;;;;;;;-1.15;93.52;101005.84;4993884;28;20046;-49
2022/12/13 10:54:30;;;;;;;28.33;20.05;;;;;;;-1.17;93.96;101012.41;4975074;28;20069;-51
2022/12/13 10:57:05;;;;;;;27.98;20.25;;;;;;;-1.14;93.61;101009.34;4974682;28;20489;-46
2022/12/13 10:59:35;;;;;;;27.65;20.65;;;;;;;-1.11;93.27;101006.28;4976417;28;20043;-45
2022/12/13 11:02:26;;;;;;;27.75;20.15;;;;;;;-1.04;93.50;100993.00;4973481;28;20049;-47
2022/12/13 11:04:54;;;;;;;28.92;19.70;;;;;;;-0.98;93.68;100990.44;4987316;28;20065;-50
2022/12/13 11:07:24;;;;;;;27.33;19.88;;;;;;;-0.99;93.10;100983.41;4986319;28;20046;-49
2022/12/13 11:09:53;;;;;;;26.83;19.83;;;;;;;-0.99;92.41;100972.72;4974680;28;20055;-47
2022/12/13 11:12:24;;;;;;;28.55;20.63;;;;;;;-0.97;93.28;100980.56;4972297;28;20046;-48
2022/12/13 11:15:00;;;;;;;28.38;19.02;;;;;;;-0.96;92.62;100977.69;4972896;28;20047;-48
2022/12/13 11:17:30;;;;;;;29.20;20.05;;;;;;;-0.95;93.20;100982.03;4976366;28;20034;-46
2022/12/13 11:20:01;;;;;;;26.52;19.27;;;;;;;-0.94;92.84;100969.47;4989193;28;20038;-47
2022/12/13 11:22:36;;;;;;;31.25;21.25;;;;;;;-0.93;92.57;100974.63;4987880;28;20064;-45
2022/12/13 11:25:23;;;;;;;29.88;19.48;;;;;;;-0.93;92.76;100974.63;4981488;28;20038;-51
2022/12/13 11:27:56;;;;;;;;;;;;;;;-0.89;93.00;100973.25;4977887;28;20046;-50
2022/12/13 11:30:45;;;;;;;28.67;20.45;;;;;;;-0.89;92.61;100977.75;4975445;28;19921;-48
2022/12/13 11:33:16;;;;;;;29.88;19.52;;;;;;;-0.91;92.35;100975.28;4980080;28;20078;-51
2022/12/13 11:36:13;;;;;;;28.30;19.15;;;;;;;-0.88;93.77;100969.56;4965972;28;20040;-48
2022/12/13 11:38:53;;;;;;;27.90;19.88;;;;;;;-0.77;92.96;100970.91;4967421;28;20042;-48